메인 페이지
METAR-TAF:

METAR-TAF

공항 :

Garden City, 캔자스, 미국

위도: 37-55-39N, 경도: 100-43-28W, 고도: 881m

현재 날씨관측

예보는 13분 전, 10:54시(UTC)에 발표되었습니다.
6kt
온도 -3°C
습도 80%
기압 1024 hPa
시정: 16.1km
맑음

METAR: KGCK 171054Z AUTO 26006KT 10SM CLR M03/M06 A3023 RMK AO2 SLP246 T10281061

시각: 05:07 (11:07 UTC)

예보

예보는 5 시간 47분 전, 05:20시(UTC)에 발표되었습니다.
예보 대상 시간: 17일 06시부터 18일 06시까지 (UTC)
7kt
시정: 10km
맑음
17일 1900시부터 (UTC)
15kt
시정: 10km
고도 14000ft 상공 구름 보통

TAF: KGCK 170520Z 1706/1806 19007KT P6SM SKC FM171900 18015KT P6SM SCT140

4,000개 이상의 공항 관측 자료 및 예보 (METAR 및 TAF 보고).

지도상에서 검색 가능한 기상관측소가 노란 점과 빨간 점으로 표시되어 있습니다.

기상관측소 명을 보려면 표시 위로 마우스를 이동하세요.

날씨 관측과 예보를 보려면 클릭하세요.

지도 변경 : 확대하려면 엑스 표시가 있는 녹색 버튼, 축소하려면 빼기 표시가 있는 녹색 버튼, 다음 페이지의 지도를 보려면 녹색 화살표를 클릭하세요.


METAR-TAF: